METAR Formatted Surface Weather Observation
Issued by NWS

Home | Current Version | Previous Version | Text Only | Print | Product List | Glossary On
Versions: 1 2 3 4
000
SAUS45 KFGZ 231357
MTRRQE
METAR KRQE 231353Z AUTO 00000KT 10SM CLR 19/08 A3046 RMK AO2 SLP175
T01890083 TSNO



USA.gov is the U.S. government's official web portal to all federal, state and local government web resources and services.